Aidablu — IBWX — position and weather

sailwx.info

Track history (hours):
 
Tides and Currents Weather Stations Pressure Air Temp Water Temp Dewpoint Dewpoint Depression Visibility Wind Speed Wind Dir Waves Ship Positions

Aidablu

Last reported at 2015-May-06 05:29 UTC. Time now 2015-May-06 09:26 UTC.
Position N 41°21' E 002°10'.

Length 252 m; draft 7.3 m.

Type: Ship. MMSI: 247282500.

Date/timePositionNaut miles runAvg speedWind from/ knotsBaromVisibWave heightAir tempDewpointWater temp
2015-May-06 05:29N 41°21' E 002°10'2211.5
2015-May-06 03:33N 40°59' E 002°12'1413.9
2015-May-06 02:33N 40°45' E 002°12'1716.5
2015-May-06 01:33N 40°29' E 002°13'1818.0
2015-May-06 00:34N 40°11' E 002°13'1818.5
2015-May-05 23:33N 39°52' E 002°14'2216.9
2015-May-05 22:16N 39°31' E 002°19'1216.2
2015-May-05 21:33N 39°27' E 002°33'7 7.0
2015-May-05 20:32N 39°33' E 002°38'0 0.0
2015-May-05 19:32N 39°33' E 002°38'0 0.0
2015-May-05 18:31N 39°33' E 002°38'0 0.0
2015-May-05 17:31N 39°33' E 002°38'0 0.0
2015-May-05 16:33N 39°33' E 002°38'0 0.0
2015-May-05 15:33N 39°33' E 002°38'0 0.0
2015-May-05 14:32N 39°33' E 002°38'0 0.0
2015-May-05 13:32N 39°33' E 002°38'0 0.0
2015-May-05 12:29N 39°33' E 002°38'0 0.0
2015-May-05 11:31N 39°33' E 002°38'0 0.0
2015-May-05 10:28N 39°33' E 002°38'0 0.0
2015-May-05 09:33N 39°33' E 002°38'0 0.0
2015-May-05 08:33N 39°33' E 002°38'0 0.0
2015-May-05 07:32N 39°33' E 002°38'0 0.0
2015-May-05 06:32N 39°33' E 002°38'0 0.0
2015-May-05 05:29N 39°33' E 002°38'0 0.0
2015-May-05 04:32N 39°33' E 002°38'0 0.0
2015-May-05 03:25N 39°33' E 002°38'0 0.4
2015-May-05 02:33N 39°33' E 002°38'10 9.7
2015-May-05 01:33N 39°26' E 002°30'1413.9
2015-May-05 00:32N 39°34' E 002°14'1414.5
2015-May-04 23:33N 39°48' E 002°14'1514.7
2015-May-04 22:33N 40°03' E 002°13'1818.1
2015-May-04 21:33N 40°21' E 002°13'1818.4
2015-May-04 20:33N 40°39' E 002°12'1818.2
2015-May-04 19:33N 40°58' E 002°11'1818.1
2015-May-04 18:33N 41°16' E 002°10'6 2.5
2015-May-04 16:17N 41°21' E 002°11'0 0.0
2015-May-04 15:23N 41°21' E 002°11'0 0.0
2015-May-04 13:22N 41°21' E 002°11'0 0.0
2015-May-04 12:21N 41°21' E 002°11'0 0.0
2015-May-04 11:28N 41°21' E 002°11'3 3.1
2015-May-04 10:33N 41°19' E 002°11'0 0.4
2015-May-04 09:31N 41°18' E 002°11'0 0.2
2015-May-04 08:33N 41°18' E 002°11'0 0.1
2015-May-04 07:33N 41°18' E 002°11'1 0.6
2015-May-04 06:32N 41°18' E 002°12'0 0.3
2015-May-04 05:29N 41°17' E 002°11'0 0.2
2015-May-04 04:33N 41°17' E 002°11'7 6.6
2015-May-04 03:33N 41°17' E 002°20'1212.5
2015-May-04 02:33N 41°21' E 002°36'1615.9
2015-May-04 01:31N 41°25' E 002°57'3415.2
2015-May-03 23:16N 41°34' E 003°42'811.1
2015-May-03 22:30N 41°36' E 003°52'8 8.5
2015-May-03 21:30N 41°38' E 004°03'57 7.9
2015-May-03 14:22N 41°52' E 005°17'199 4.7
2015-May-01 20:16N 43°09' E 009°27'1014.0
2015-May-01 19:34N 43°13' E 009°39'1514.3
2015-May-01 18:32N 43°19' E 009°57'1313.9
2015-May-01 17:33N 43°29' E 010°10'7 6.6
2015-May-01 16:31N 43°33' E 010°18'0 0.0
2015-May-01 15:30N 43°33' E 010°18'0 0.0
2015-May-01 14:33N 43°33' E 010°18'0 0.0
2015-May-01 13:33N 43°33' E 010°18'0 0.0
2015-May-01 12:32N 43°33' E 010°18'0 0.0
2015-May-01 11:32N 43°33' E 010°18'0 0.0
2015-May-01 10:31N 43°33' E 010°18'0 0.0
2015-May-01 09:31N 43°33' E 010°18'0 0.0
2015-May-01 08:33N 43°33' E 010°18'0 0.0
2015-May-01 07:33N 43°33' E 010°18'0 0.0
2015-May-01 06:32N 43°33' E 010°18'0 0.0
2015-May-01 05:32N 43°33' E 010°18'4 3.7
2015-May-01 04:34N 43°30' E 010°15'7 6.6
2015-May-01 03:34N 43°24' E 010°11'7 7.4
2015-May-01 02:33N 43°17' E 010°09'1514.6
2015-May-01 01:33N 43°02' E 010°05'1514.7
2015-May-01 00:33N 42°48' E 010°02'1613.7
2015-Apr-30 23:23N 42°36' E 010°16'1214.7
2015-Apr-30 22:33N 42°28' E 010°29'1514.6
2015-Apr-30 21:33N 42°19' E 010°44'152 6.1
2015-Apr-29 20:29N 40°51' E 013°30'1314.0
2015-Apr-29 19:33N 40°43' E 013°44'1313.3
2015-Apr-29 18:33N 40°39' E 014°00'1414.0
2015-Apr-29 17:33N 40°47' E 014°15'126 6.0
2015-Apr-28 20:28N 38°45' E 013°36'1617.7
2015-Apr-28 19:33N 38°30' E 013°32'1817.5
2015-Apr-28 18:33N 38°12' E 013°27'6 5.9
2015-Apr-28 17:32N 38°08' E 013°22'0 0.0
2015-Apr-28 16:32N 38°08' E 013°22'0 0.0
2015-Apr-28 15:32N 38°08' E 013°22'0 0.0
2015-Apr-28 14:31N 38°08' E 013°22'0 0.0
2015-Apr-28 13:31N 38°08' E 013°22'0 0.0
2015-Apr-28 12:33N 38°08' E 013°22'0 0.0
2015-Apr-28 11:33N 38°08' E 013°22'0 0.0
2015-Apr-28 10:32N 38°08' E 013°22'0 0.0
2015-Apr-28 09:32N 38°08' E 013°22'0 0.0
2015-Apr-28 08:32N 38°08' E 013°22'0 0.0
2015-Apr-28 07:31N 38°08' E 013°22'0 0.0
2015-Apr-28 06:31N 38°08' E 013°22'0 0.0
2015-Apr-28 05:33N 38°08' E 013°22'3 2.9
2015-Apr-28 04:33N 38°10' E 013°24'1515.2
2015-Apr-28 03:33N 38°23' E 013°14'1918.9
2015-Apr-28 02:33N 38°34' E 012°55'20818.3
2015-Apr-27 15:09N 40°56' E 009°35'3 4.6
2015-Apr-27 14:29N 40°55' E 009°31'0 0.0
2015-Apr-27 13:20N 40°55' E 009°31'0 0.0
2015-Apr-27 12:31N 40°55' E 009°31'0 0.0
2015-Apr-27 11:25N 40°55' E 009°31'0 0.0
2015-Apr-27 10:31N 40°55' E 009°31'0 0.0
2015-Apr-27 09:27N 40°55' E 009°31'0 0.0
2015-Apr-27 08:33N 40°55' E 009°31'0 0.0
2015-Apr-27 07:29N 40°55' E 009°31'0 0.0
2015-Apr-27 06:23N 40°55' E 009°31'0 0.0
2015-Apr-27 05:31N 40°55' E 009°31'0 0.0
2015-Apr-27 04:33N 40°55' E 009°31'139 9.7
2015-Apr-26 14:13N 40°30' E 006°31'  
Track history (hours):
 
Tides and Currents Weather Stations Pressure Air Temp Water Temp Dewpoint Dewpoint Depression Visibility Wind Speed Wind Dir Waves Ship Positions

Aidablu

Last reported at 2015-May-06 05:29 UTC. Time now 2015-May-06 09:26 UTC.
Position N 41°21' E 002°10'.

Length 252 m; draft 7.3 m.

Type: Ship. MMSI: 247282500.

Date/timePositionNaut miles runAvg speedWind from/ knotsBaromVisibWave heightAir tempDewpointWater temp
2015-May-06 05:29N 41°21' E 002°10'2211.5
2015-May-06 03:33N 40°59' E 002°12'1413.9
2015-May-06 02:33N 40°45' E 002°12'1716.5
2015-May-06 01:33N 40°29' E 002°13'1818.0
2015-May-06 00:34N 40°11' E 002°13'1818.5
2015-May-05 23:33N 39°52' E 002°14'2216.9
2015-May-05 22:16N 39°31' E 002°19'1216.2
2015-May-05 21:33N 39°27' E 002°33'7 7.0
2015-May-05 20:32N 39°33' E 002°38'0 0.0
2015-May-05 19:32N 39°33' E 002°38'0 0.0
2015-May-05 18:31N 39°33' E 002°38'0 0.0
2015-May-05 17:31N 39°33' E 002°38'0 0.0
2015-May-05 16:33N 39°33' E 002°38'0 0.0
2015-May-05 15:33N 39°33' E 002°38'0 0.0
2015-May-05 14:32N 39°33' E 002°38'0 0.0
2015-May-05 13:32N 39°33' E 002°38'0 0.0
2015-May-05 12:29N 39°33' E 002°38'0 0.0
2015-May-05 11:31N 39°33' E 002°38'0 0.0
2015-May-05 10:28N 39°33' E 002°38'0 0.0
2015-May-05 09:33N 39°33' E 002°38'0 0.0
2015-May-05 08:33N 39°33' E 002°38'0 0.0
2015-May-05 07:32N 39°33' E 002°38'0 0.0
2015-May-05 06:32N 39°33' E 002°38'0 0.0
2015-May-05 05:29N 39°33' E 002°38'0 0.0
2015-May-05 04:32N 39°33' E 002°38'0 0.0
2015-May-05 03:25N 39°33' E 002°38'0 0.4
2015-May-05 02:33N 39°33' E 002°38'10 9.7
2015-May-05 01:33N 39°26' E 002°30'1413.9
2015-May-05 00:32N 39°34' E 002°14'1414.5
2015-May-04 23:33N 39°48' E 002°14'1514.7
2015-May-04 22:33N 40°03' E 002°13'1818.1
2015-May-04 21:33N 40°21' E 002°13'1818.4
2015-May-04 20:33N 40°39' E 002°12'1818.2
2015-May-04 19:33N 40°58' E 002°11'1818.1
2015-May-04 18:33N 41°16' E 002°10'6 2.5
2015-May-04 16:17N 41°21' E 002°11'0 0.0
2015-May-04 15:23N 41°21' E 002°11'0 0.0
2015-May-04 13:22N 41°21' E 002°11'0 0.0
2015-May-04 12:21N 41°21' E 002°11'0 0.0
2015-May-04 11:28N 41°21' E 002°11'3 3.1
2015-May-04 10:33N 41°19' E 002°11'0 0.4
2015-May-04 09:31N 41°18' E 002°11'0 0.2
2015-May-04 08:33N 41°18' E 002°11'0 0.1
2015-May-04 07:33N 41°18' E 002°11'1 0.6
2015-May-04 06:32N 41°18' E 002°12'0 0.3
2015-May-04 05:29N 41°17' E 002°11'0 0.2
2015-May-04 04:33N 41°17' E 002°11'7 6.6
2015-May-04 03:33N 41°17' E 002°20'1212.5
2015-May-04 02:33N 41°21' E 002°36'1615.9
2015-May-04 01:31N 41°25' E 002°57'3415.2
2015-May-03 23:16N 41°34' E 003°42'811.1
2015-May-03 22:30N 41°36' E 003°52'8 8.5
2015-May-03 21:30N 41°38' E 004°03'57 7.9
2015-May-03 14:22N 41°52' E 005°17'199 4.7
2015-May-01 20:16N 43°09' E 009°27'1014.0
2015-May-01 19:34N 43°13' E 009°39'1514.3
2015-May-01 18:32N 43°19' E 009°57'1313.9
2015-May-01 17:33N 43°29' E 010°10'7 6.6
2015-May-01 16:31N 43°33' E 010°18'0 0.0
2015-May-01 15:30N 43°33' E 010°18'0 0.0
2015-May-01 14:33N 43°33' E 010°18'0 0.0
2015-May-01 13:33N 43°33' E 010°18'0 0.0
2015-May-01 12:32N 43°33' E 010°18'0 0.0
2015-May-01 11:32N 43°33' E 010°18'0 0.0
2015-May-01 10:31N 43°33' E 010°18'0 0.0
2015-May-01 09:31N 43°33' E 010°18'0 0.0
2015-May-01 08:33N 43°33' E 010°18'0 0.0
2015-May-01 07:33N 43°33' E 010°18'0 0.0
2015-May-01 06:32N 43°33' E 010°18'0 0.0
2015-May-01 05:32N 43°33' E 010°18'4 3.7
2015-May-01 04:34N 43°30' E 010°15'7 6.6
2015-May-01 03:34N 43°24' E 010°11'7 7.4
2015-May-01 02:33N 43°17' E 010°09'1514.6
2015-May-01 01:33N 43°02' E 010°05'1514.7
2015-May-01 00:33N 42°48' E 010°02'1613.7
2015-Apr-30 23:23N 42°36' E 010°16'1214.7
2015-Apr-30 22:33N 42°28' E 010°29'1514.6
2015-Apr-30 21:33N 42°19' E 010°44'152 6.1
2015-Apr-29 20:29N 40°51' E 013°30'1314.0
2015-Apr-29 19:33N 40°43' E 013°44'1313.3
2015-Apr-29 18:33N 40°39' E 014°00'1414.0
2015-Apr-29 17:33N 40°47' E 014°15'126 6.0
2015-Apr-28 20:28N 38°45' E 013°36'1617.7
2015-Apr-28 19:33N 38°30' E 013°32'1817.5
2015-Apr-28 18:33N 38°12' E 013°27'6 5.9
2015-Apr-28 17:32N 38°08' E 013°22'0 0.0
2015-Apr-28 16:32N 38°08' E 013°22'0 0.0
2015-Apr-28 15:32N 38°08' E 013°22'0 0.0
2015-Apr-28 14:31N 38°08' E 013°22'0 0.0
2015-Apr-28 13:31N 38°08' E 013°22'0 0.0
2015-Apr-28 12:33N 38°08' E 013°22'0 0.0
2015-Apr-28 11:33N 38°08' E 013°22'0 0.0
2015-Apr-28 10:32N 38°08' E 013°22'0 0.0
2015-Apr-28 09:32N 38°08' E 013°22'0 0.0
2015-Apr-28 08:32N 38°08' E 013°22'0 0.0
2015-Apr-28 07:31N 38°08' E 013°22'0 0.0
2015-Apr-28 06:31N 38°08' E 013°22'0 0.0
2015-Apr-28 05:33N 38°08' E 013°22'3 2.9
2015-Apr-28 04:33N 38°10' E 013°24'1515.2
2015-Apr-28 03:33N 38°23' E 013°14'1918.9
2015-Apr-28 02:33N 38°34' E 012°55'20818.3
2015-Apr-27 15:09N 40°56' E 009°35'3 4.6
2015-Apr-27 14:29N 40°55' E 009°31'0 0.0
2015-Apr-27 13:20N 40°55' E 009°31'0 0.0
2015-Apr-27 12:31N 40°55' E 009°31'0 0.0
2015-Apr-27 11:25N 40°55' E 009°31'0 0.0
2015-Apr-27 10:31N 40°55' E 009°31'0 0.0
2015-Apr-27 09:27N 40°55' E 009°31'0 0.0
2015-Apr-27 08:33N 40°55' E 009°31'0 0.0
2015-Apr-27 07:29N 40°55' E 009°31'0 0.0
2015-Apr-27 06:23N 40°55' E 009°31'0 0.0
2015-Apr-27 05:31N 40°55' E 009°31'0 0.0
2015-Apr-27 04:33N 40°55' E 009°31'139 9.7
2015-Apr-26 14:13N 40°30' E 006°31'  

Dump ship's entire track history